createdAt,value
2017-07-12T00:00:24.298Z,0
2017-07-12T00:03:26.579Z,0
2017-07-12T00:04:28.379Z,0
2017-07-12T00:05:30.198Z,0
2017-07-12T00:06:31.996Z,0
2017-07-12T00:07:33.442Z,0
2017-07-12T00:08:35.578Z,0
2017-07-12T00:09:37.358Z,0
2017-07-12T00:10:39.496Z,0
2017-07-12T00:11:41.631Z,0
2017-07-12T00:12:43.079Z,0
2017-07-12T00:13:44.535Z,0
2017-07-12T00:14:46.334Z,0
2017-07-12T00:15:48.474Z,0
2017-07-12T00:16:49.936Z,0
2017-07-12T00:17:51.717Z,0
2017-07-12T00:18:53.183Z,0
2017-07-12T00:19:54.650Z,0
2017-07-12T00:20:56.784Z,0
2017-07-12T00:21:58.582Z,0
2017-07-12T00:23:00.718Z,0
2017-07-12T00:24:02.161Z,0
2017-07-12T00:25:03.627Z,0
2017-07-12T00:26:05.426Z,0
2017-07-12T00:27:06.891Z,0
2017-07-12T00:28:08.670Z,0
2017-07-12T00:29:10.447Z,0
2017-07-12T00:30:11.913Z,0
2017-07-12T00:31:13.694Z,0
2017-07-12T00:32:15.831Z,0
2017-07-12T00:33:17.293Z,0
2017-07-12T00:34:19.096Z,0
2017-07-12T00:35:20.542Z,0
2017-07-12T00:36:22.676Z,0
2017-07-12T00:37:24.812Z,0
2017-07-12T00:38:26.949Z,0
2017-07-12T00:39:28.414Z,0
2017-07-12T00:40:30.560Z,0
2017-07-12T00:41:32.357Z,0
2017-07-12T00:42:34.491Z,0
2017-07-12T00:43:36.626Z,0
2017-07-12T00:44:38.425Z,0
2017-07-12T00:45:40.225Z,0
2017-07-12T00:46:41.688Z,0
2017-07-12T00:47:43.823Z,0
2017-07-12T00:48:45.623Z,0
2017-07-12T00:49:47.445Z,0
2017-07-12T00:50:49.580Z,0
2017-07-12T00:51:51.369Z,0
2017-07-12T00:52:53.149Z,0
2017-07-12T00:53:54.948Z,0
2017-07-12T00:54:56.749Z,0
2017-07-12T00:55:58.235Z,0
2017-07-12T00:56:59.344Z,0
2017-07-12T00:58:01.479Z,0
2017-07-12T00:59:03.279Z,0
2017-07-12T01:00:04.736Z,0
2017-07-12T01:01:06.200Z,0
2017-07-12T01:02:07.644Z,0
2017-07-12T01:03:09.424Z,0
2017-07-12T01:04:11.222Z,0
2017-07-12T01:05:13.359Z,0
2017-07-12T01:06:14.830Z,0
2017-07-12T01:07:16.966Z,0
2017-07-12T01:08:18.483Z,0
2017-07-12T01:09:20.283Z,0
2017-07-12T01:10:22.420Z,0
2017-07-12T01:11:24.197Z,0
2017-07-12T01:12:25.999Z,0
2017-07-12T01:13:27.456Z,0
2017-07-12T01:14:29.253Z,0
2017-07-12T01:15:31.053Z,0
2017-07-12T01:16:32.513Z,0
2017-07-12T01:17:33.953Z,0
2017-07-12T01:18:35.754Z,0
2017-07-12T01:19:37.891Z,0
2017-07-12T01:20:39.690Z,0
2017-07-12T01:21:41.828Z,0
2017-07-12T01:22:42.934Z,0
2017-07-12T01:23:44.757Z,0
2017-07-12T01:24:46.892Z,0
2017-07-12T01:25:48.696Z,0
2017-07-12T01:26:50.828Z,0
2017-07-12T01:27:52.962Z,0
2017-07-12T01:28:55.158Z,0
2017-07-12T01:29:57.281Z,0
2017-07-12T01:30:58.749Z,0
2017-07-12T01:32:00.578Z,0
2017-07-12T01:33:02.379Z,0
2017-07-12T01:34:04.546Z,0
2017-07-12T01:35:05.987Z,0
2017-07-12T01:36:07.788Z,0
2017-07-12T01:37:09.627Z,0
2017-07-12T01:38:11.464Z,0
2017-07-12T01:39:13.260Z,0
2017-07-12T01:40:15.050Z,0
2017-07-12T01:41:17.186Z,0
2017-07-12T01:42:18.986Z,0
2017-07-12T01:43:20.788Z,0
2017-07-12T01:44:22.253Z,0
2017-07-12T01:45:24.387Z,0
2017-07-12T01:46:26.579Z,0
2017-07-12T01:47:28.714Z,0
2017-07-12T01:48:30.515Z,0
2017-07-12T01:49:32.315Z,0
2017-07-12T01:50:33.782Z,0
2017-07-12T01:51:35.560Z,0
2017-07-12T01:52:37.362Z,0
2017-07-12T01:53:39.494Z,0
2017-07-12T01:54:41.630Z,0
2017-07-12T01:55:43.098Z,0
2017-07-12T01:56:44.264Z,0
2017-07-12T01:57:46.068Z,0
2017-07-12T01:58:47.865Z,0
2017-07-12T01:59:50.017Z,0
2017-07-12T02:00:51.818Z,0
2017-07-12T02:01:53.622Z,0
2017-07-12T02:02:55.422Z,0
2017-07-12T02:03:57.609Z,0
2017-07-12T02:04:59.072Z,0
2017-07-12T02:06:00.873Z,0
2017-07-12T02:07:03.057Z,0
2017-07-12T02:08:05.190Z,0
2017-07-12T02:09:06.983Z,0
2017-07-12T02:10:08.452Z,0
2017-07-12T02:11:10.230Z,0
2017-07-12T02:12:12.010Z,0
2017-07-12T02:13:13.477Z,0
2017-07-12T02:14:15.609Z,0
2017-07-12T02:15:17.744Z,0
2017-07-12T02:16:19.881Z,0
2017-07-12T02:17:21.683Z,0
2017-07-12T02:18:23.481Z,0
2017-07-12T02:19:25.283Z,0
2017-07-12T02:20:27.082Z,0
2017-07-12T02:21:28.884Z,0
2017-07-12T02:22:30.681Z,0
2017-07-12T02:23:32.819Z,0
2017-07-12T02:24:34.621Z,0
2017-07-12T02:25:36.422Z,0
2017-07-12T02:26:38.223Z,0
2017-07-12T02:27:40.022Z,0
2017-07-12T02:28:41.144Z,0
2017-07-12T02:29:42.913Z,0
2017-07-12T02:30:44.043Z,0
2017-07-12T02:31:45.846Z,0
2017-07-12T02:32:47.980Z,0
2017-07-12T02:33:49.756Z,0
2017-07-12T02:34:51.891Z,0
2017-07-12T02:35:53.334Z,0
2017-07-12T02:36:54.474Z,0
2017-07-12T02:37:55.918Z,0
2017-07-12T02:38:57.699Z,0
2017-07-12T02:39:59.500Z,0
2017-07-12T02:41:01.632Z,0
2017-07-12T02:42:03.765Z,0
2017-07-12T02:43:04.873Z,0
2017-07-12T02:44:07.008Z,0
2017-07-12T02:45:09.142Z,0
2017-07-12T02:46:10.587Z,0
2017-07-12T02:47:12.100Z,0
2017-07-12T02:48:14.230Z,0
2017-07-12T02:49:16.365Z,0
2017-07-12T02:50:18.164Z,0
2017-07-12T02:51:20.297Z,0
2017-07-12T02:52:21.765Z,0
2017-07-12T02:53:23.565Z,0
2017-07-12T02:54:25.006Z,0
2017-07-12T02:55:27.140Z,0
2017-07-12T02:56:29.276Z,0
2017-07-12T02:57:31.411Z,0
2017-07-12T02:58:32.544Z,0
2017-07-12T02:59:34.676Z,0
2017-07-12T03:00:36.475Z,0
2017-07-12T03:01:38.278Z,0
2017-07-12T03:02:40.078Z,0
2017-07-12T03:03:41.879Z,0
2017-07-12T03:04:43.685Z,0
2017-07-12T03:05:45.811Z,0
2017-07-12T03:06:47.588Z,0
2017-07-12T03:07:49.369Z,0
2017-07-12T03:08:50.812Z,0
2017-07-12T03:09:52.256Z,0
2017-07-12T03:10:53.706Z,0
2017-07-12T03:11:55.872Z,0
2017-07-12T03:12:58.031Z,0
2017-07-12T03:13:59.832Z,0
2017-07-12T03:15:01.967Z,0
2017-07-12T03:16:03.412Z,0
2017-07-12T03:17:05.548Z,0
2017-07-12T03:18:07.682Z,0
2017-07-12T03:19:09.130Z,0
2017-07-12T03:20:10.575Z,0
2017-07-12T03:21:12.711Z,0
2017-07-12T03:22:14.511Z,0
2017-07-12T03:23:16.311Z,0
2017-07-12T03:24:18.445Z,0
2017-07-12T03:25:20.248Z,0
2017-07-12T03:26:22.384Z,0
2017-07-12T03:27:23.829Z,0
2017-07-12T03:28:25.964Z,0
2017-07-12T03:29:28.101Z,0
2017-07-12T03:30:29.547Z,0
2017-07-12T03:31:31.326Z,0
2017-07-12T03:32:33.464Z,0
2017-07-12T03:33:35.266Z,0
2017-07-12T03:34:37.399Z,0
2017-07-12T03:35:39.196Z,0
2017-07-12T03:36:40.975Z,0
2017-07-12T03:37:42.418Z,0
2017-07-12T03:38:44.198Z,0
2017-07-12T03:39:45.672Z,0
2017-07-12T03:40:47.518Z,0
2017-07-12T03:41:49.332Z,0
2017-07-12T03:42:50.782Z,0
2017-07-12T03:43:52.224Z,0
2017-07-12T03:44:53.671Z,0
2017-07-12T03:45:54.783Z,0
2017-07-12T03:46:56.585Z,0
2017-07-12T03:47:58.061Z,0
2017-07-12T03:49:00.200Z,0
2017-07-12T03:50:01.974Z,0
2017-07-12T03:51:03.457Z,0
2017-07-12T03:52:04.924Z,0
2017-07-12T03:53:07.057Z,0
2017-07-12T03:54:08.859Z,0
2017-07-12T03:55:10.996Z,0
2017-07-12T03:56:12.797Z,0
2017-07-12T03:57:14.597Z,0
2017-07-12T03:58:16.042Z,0
2017-07-12T03:59:17.841Z,0
2017-07-12T04:00:18.973Z,0
2017-07-12T04:01:20.442Z,0
2017-07-12T04:02:22.579Z,0
2017-07-12T04:03:24.721Z,0
2017-07-12T04:04:26.524Z,0
2017-07-12T04:05:28.322Z,0
2017-07-12T04:06:29.431Z,0
2017-07-12T04:07:30.876Z,0
2017-07-12T04:08:33.012Z,0
2017-07-12T04:09:34.816Z,0
2017-07-12T04:10:36.288Z,0
2017-07-12T04:11:38.115Z,0
2017-07-12T04:12:39.898Z,0
2017-07-12T04:13:41.680Z,0
2017-07-12T04:14:43.484Z,0
2017-07-12T04:15:45.262Z,0
2017-07-12T04:16:47.400Z,0
2017-07-12T04:17:49.535Z,0
2017-07-12T04:18:51.314Z,0
2017-07-12T04:19:53.096Z,0
2017-07-12T04:20:55.232Z,0
2017-07-12T04:21:57.034Z,0
2017-07-12T04:22:58.502Z,0
2017-07-12T04:23:59.944Z,0
2017-07-12T04:25:01.410Z,0
2017-07-12T04:26:02.527Z,0
2017-07-12T04:27:04.331Z,0
2017-07-12T04:28:06.130Z,0
2017-07-12T04:29:07.933Z,0
2017-07-12T04:30:09.403Z,0
2017-07-12T04:31:11.188Z,0
2017-07-12T04:32:12.990Z,0
2017-07-12T04:33:15.011Z,0
2017-07-12T04:34:16.487Z,0
2017-07-12T04:35:18.285Z,0
2017-07-12T04:36:20.085Z,0
2017-07-12T04:37:21.887Z,0
2017-07-12T04:38:23.332Z,0
2017-07-12T04:39:25.514Z,0
2017-07-12T04:40:26.981Z,0
2017-07-12T04:41:29.125Z,0
2017-07-12T04:42:30.918Z,0
2017-07-12T04:43:33.055Z,0
2017-07-12T04:44:35.191Z,0
2017-07-12T04:45:37.327Z,0
2017-07-12T04:46:39.128Z,0
2017-07-12T04:47:40.932Z,0
2017-07-12T04:48:42.761Z,0
2017-07-12T04:49:44.895Z,0
2017-07-12T04:50:46.693Z,0
2017-07-12T04:51:48.500Z,0
2017-07-12T04:52:49.948Z,0
2017-07-12T04:53:52.089Z,0
2017-07-12T04:54:53.867Z,0
2017-07-12T04:55:56.006Z,0
2017-07-12T04:56:57.118Z,0
2017-07-12T04:57:58.589Z,0
2017-07-12T04:59:00.389Z,0
2017-07-12T05:00:01.498Z,0
2017-07-12T05:01:03.299Z,0
2017-07-12T05:02:05.078Z,0
2017-07-12T05:03:07.211Z,0
2017-07-12T05:04:09.348Z,0
2017-07-12T05:05:11.150Z,0
2017-07-12T05:06:12.927Z,0
2017-07-12T05:07:14.728Z,0
2017-07-12T05:08:16.547Z,0
2017-07-12T05:09:17.678Z,0
2017-07-12T05:10:19.815Z,0
2017-07-12T05:11:21.950Z,0
2017-07-12T05:12:23.749Z,0
2017-07-12T05:13:24.887Z,0
2017-07-12T05:14:27.025Z,0
2017-07-12T05:15:28.491Z,0
2017-07-12T05:16:29.956Z,0
2017-07-12T05:17:31.758Z,0
2017-07-12T05:18:33.201Z,0
2017-07-12T05:19:35.336Z,0
2017-07-12T05:20:37.494Z,0
2017-07-12T05:21:39.298Z,0
2017-07-12T05:22:41.076Z,0
2017-07-12T05:23:42.522Z,0
2017-07-12T05:24:44.305Z,0
2017-07-12T05:25:46.443Z,0
2017-07-12T05:26:47.574Z,0
2017-07-12T05:27:49.712Z,0
2017-07-12T05:28:51.151Z,0
2017-07-12T05:29:53.287Z,0
2017-07-12T05:30:55.425Z,0
2017-07-12T05:31:57.562Z,0
2017-07-12T05:32:59.342Z,0
2017-07-12T05:34:00.807Z,0
2017-07-12T05:35:02.992Z,0
2017-07-12T05:36:04.831Z,0
2017-07-12T05:37:06.633Z,0
2017-07-12T05:38:08.414Z,0
2017-07-12T05:39:10.551Z,0
2017-07-12T05:40:11.997Z,0
2017-07-12T05:41:14.136Z,0
2017-07-12T05:42:15.940Z,0
2017-07-12T05:43:18.078Z,0
2017-07-12T05:44:19.881Z,0
2017-07-12T05:45:20.992Z,0
2017-07-12T05:46:22.790Z,0
2017-07-12T05:47:24.592Z,0
2017-07-12T05:48:26.059Z,0
2017-07-12T05:49:27.528Z,0
2017-07-12T05:50:29.667Z,0
2017-07-12T05:51:31.112Z,0
2017-07-12T05:52:32.906Z,0
2017-07-12T05:53:34.351Z,0
2017-07-12T05:54:35.797Z,0
2017-07-12T05:55:37.243Z,0
2017-07-12T05:56:39.379Z,0
2017-07-12T05:57:40.845Z,0
2017-07-12T05:58:42.979Z,0
2017-07-12T05:59:45.119Z,0
2017-07-12T06:00:46.920Z,0
2017-07-12T06:01:48.371Z,0
2017-07-12T06:02:50.505Z,0
2017-07-12T06:03:52.639Z,0
2017-07-12T06:04:54.422Z,0
2017-07-12T06:05:56.569Z,0
2017-07-12T06:06:58.032Z,0
2017-07-12T06:07:59.836Z,0
2017-07-12T06:09:01.302Z,0
2017-07-12T06:10:03.438Z,0
2017-07-12T06:11:05.573Z,0
2017-07-12T06:12:07.025Z,0
2017-07-12T06:13:09.158Z,0
2017-07-12T06:14:10.293Z,0
2017-07-12T06:15:11.404Z,0
2017-07-12T06:16:13.208Z,0
2017-07-12T06:17:13.983Z,0
2017-07-12T06:18:16.118Z,0
2017-07-12T06:19:18.253Z,0
2017-07-12T06:20:20.389Z,0
2017-07-12T06:21:21.503Z,0
2017-07-12T06:22:22.946Z,0
2017-07-12T06:23:24.058Z,0
2017-07-12T06:24:25.166Z,0
2017-07-12T06:25:26.964Z,0
2017-07-12T06:26:28.431Z,0
2017-07-12T06:27:30.568Z,0
2017-07-12T06:28:32.706Z,5
2017-07-12T06:29:34.510Z,5
2017-07-12T06:30:36.311Z,5
2017-07-12T06:31:38.447Z,5
2017-07-12T06:32:40.247Z,5
2017-07-12T06:33:42.048Z,5
2017-07-12T06:34:43.825Z,5
2017-07-12T06:35:45.963Z,5
2017-07-12T06:36:47.763Z,5
2017-07-12T06:37:49.562Z,5
2017-07-12T06:38:51.363Z,5
2017-07-12T06:39:53.163Z,5
2017-07-12T06:40:54.611Z,5
2017-07-12T06:41:56.409Z,5
2017-07-12T06:42:58.212Z,5
2017-07-12T06:44:00.009Z,5
2017-07-12T06:45:01.788Z,5
2017-07-12T06:46:03.573Z,5
2017-07-12T06:47:04.680Z,5
2017-07-12T06:48:06.456Z,5
2017-07-12T06:49:08.593Z,5
2017-07-12T06:50:10.052Z,5
2017-07-12T06:51:11.835Z,5
2017-07-12T06:52:13.283Z,0
2017-07-12T06:53:15.135Z,0
2017-07-12T06:54:16.931Z,0
2017-07-12T06:55:18.396Z,0
2017-07-12T06:56:20.530Z,5
2017-07-12T06:57:22.667Z,5
2017-07-12T06:58:24.802Z,5
2017-07-12T06:59:26.619Z,5
2017-07-12T07:00:28.116Z,5
2017-07-12T07:01:29.920Z,5
2017-07-12T07:02:31.725Z,5
2017-07-12T07:03:32.838Z,5
2017-07-12T07:04:34.297Z,5
2017-07-12T07:05:36.432Z,5
2017-07-12T07:06:37.976Z,5
2017-07-12T07:07:39.087Z,5
2017-07-12T07:08:40.890Z,5
2017-07-12T07:09:43.025Z,5
2017-07-12T07:10:44.802Z,5
2017-07-12T07:11:46.939Z,5
2017-07-12T07:12:48.742Z,5
2017-07-12T07:13:50.189Z,5
2017-07-12T07:14:51.653Z,11
2017-07-12T07:15:53.789Z,11
2017-07-12T07:16:55.593Z,5
2017-07-12T07:17:57.732Z,5
2017-07-12T07:18:59.535Z,5
2017-07-12T07:20:01.336Z,5
2017-07-12T07:21:03.469Z,5
2017-07-12T07:22:05.010Z,5
2017-07-12T07:23:07.145Z,11
2017-07-12T07:24:08.949Z,11
2017-07-12T07:25:10.416Z,11
2017-07-12T07:26:11.861Z,11
2017-07-12T07:27:13.998Z,5
2017-07-12T07:28:15.775Z,5
2017-07-12T07:29:16.888Z,5
2017-07-12T07:30:18.666Z,5
2017-07-12T07:31:20.470Z,5
2017-07-12T07:32:21.938Z,5
2017-07-12T07:33:24.075Z,5
2017-07-12T07:34:25.545Z,5
2017-07-12T07:35:27.344Z,5
2017-07-12T07:36:29.484Z,5
2017-07-12T07:37:30.947Z,5
2017-07-12T07:38:32.746Z,5
2017-07-12T07:39:34.879Z,5
2017-07-12T07:40:37.016Z,11
2017-07-12T07:41:38.466Z,11
2017-07-12T07:42:39.594Z,11
2017-07-12T07:43:41.399Z,11
2017-07-12T07:44:43.539Z,11
2017-07-12T07:45:45.316Z,11
2017-07-12T07:46:46.425Z,11
2017-07-12T07:47:47.890Z,5
2017-07-12T07:48:50.033Z,5
2017-07-12T07:49:52.169Z,5
2017-07-12T07:50:53.969Z,5
2017-07-12T07:51:56.117Z,5
2017-07-12T07:52:57.573Z,5
2017-07-12T07:53:59.017Z,5
2017-07-12T07:55:00.820Z,5
2017-07-12T07:56:02.267Z,11
2017-07-12T07:57:04.409Z,11
2017-07-12T07:58:05.876Z,11
2017-07-12T07:59:06.985Z,16
2017-07-12T08:00:08.123Z,16
2017-07-12T08:01:09.592Z,16
2017-07-12T08:02:10.703Z,11
2017-07-12T08:03:12.172Z,11
2017-07-12T08:04:14.308Z,11
2017-07-12T08:05:15.777Z,11
2017-07-12T08:06:17.583Z,11
2017-07-12T08:07:19.025Z,16
2017-07-12T08:08:20.148Z,16
2017-07-12T08:09:21.954Z,16
2017-07-12T08:10:23.092Z,16
2017-07-12T08:11:24.552Z,16
2017-07-12T08:12:26.350Z,16
2017-07-12T08:13:28.154Z,11
2017-07-12T08:14:30.291Z,11
2017-07-12T08:15:32.092Z,11
2017-07-12T08:16:33.894Z,11
2017-07-12T08:17:35.006Z,11
2017-07-12T08:18:36.791Z,11
2017-07-12T08:19:38.622Z,5
2017-07-12T08:20:40.076Z,11
2017-07-12T08:21:42.213Z,11
2017-07-12T08:22:43.333Z,11
2017-07-12T08:23:44.511Z,11
2017-07-12T08:24:46.290Z,11
2017-07-12T08:25:47.740Z,11
2017-07-12T08:26:49.874Z,11
2017-07-12T08:27:51.678Z,16
2017-07-12T08:28:53.493Z,16
2017-07-12T08:29:55.626Z,22
2017-07-12T08:30:57.762Z,22
2017-07-12T08:31:59.904Z,16
2017-07-12T08:33:01.351Z,16
2017-07-12T08:34:03.151Z,16
2017-07-12T08:35:04.955Z,22
2017-07-12T08:36:06.757Z,16
2017-07-12T08:37:08.561Z,16
2017-07-12T08:38:10.012Z,16
2017-07-12T08:39:12.187Z,16
2017-07-12T08:40:14.321Z,22
2017-07-12T08:41:15.765Z,16
2017-07-12T08:42:17.547Z,22
2017-07-12T08:43:19.350Z,22
2017-07-12T08:44:21.250Z,16
2017-07-12T08:45:22.719Z,16
2017-07-12T08:46:23.855Z,11
2017-07-12T08:47:25.992Z,11
2017-07-12T08:48:27.808Z,11
2017-07-12T08:49:29.596Z,11
2017-07-12T08:50:31.730Z,11
2017-07-12T08:51:33.173Z,5
2017-07-12T08:52:34.619Z,5
2017-07-12T08:53:36.759Z,5
2017-07-12T08:54:37.869Z,5
2017-07-12T08:55:39.671Z,5
2017-07-12T08:56:41.474Z,5
2017-07-12T08:57:43.608Z,5
2017-07-12T08:58:45.413Z,0
2017-07-12T08:59:47.547Z,0
2017-07-12T09:00:48.990Z,0
2017-07-12T09:01:51.129Z,0
2017-07-12T09:02:52.265Z,0
2017-07-12T09:03:54.402Z,0
2017-07-12T09:04:56.539Z,0
2017-07-12T09:05:58.709Z,0
2017-07-12T09:07:00.844Z,0
2017-07-12T09:08:02.626Z,0
2017-07-12T09:09:04.426Z,0
2017-07-12T09:10:06.236Z,0
2017-07-12T09:11:08.376Z,0
2017-07-12T09:12:10.511Z,0
2017-07-12T09:13:12.648Z,0
2017-07-12T09:14:14.782Z,0
2017-07-12T09:15:16.584Z,0
2017-07-12T09:16:18.364Z,5
2017-07-12T09:17:20.500Z,5
2017-07-12T09:18:22.304Z,5
2017-07-12T09:19:24.104Z,11
2017-07-12T09:20:25.903Z,11
2017-07-12T09:21:28.041Z,11
2017-07-12T09:22:29.842Z,11
2017-07-12T09:23:31.287Z,11
2017-07-12T09:33:41.090Z,16
2017-07-12T09:34:42.888Z,16
2017-07-12T09:35:44.103Z,16
2017-07-12T09:36:45.238Z,16
2017-07-12T09:37:47.041Z,16
2017-07-12T09:38:48.820Z,16
2017-07-12T09:39:50.267Z,16
2017-07-12T09:40:51.736Z,16
2017-07-12T09:41:53.182Z,16
2017-07-12T09:42:55.319Z,16
2017-07-12T09:43:57.100Z,16
2017-07-12T09:44:58.903Z,16
2017-07-12T09:46:00.009Z,16
2017-07-12T09:47:01.457Z,16
2017-07-12T09:48:02.232Z,16
2017-07-12T09:49:03.349Z,16
2017-07-12T09:50:05.491Z,16
2017-07-12T09:51:07.290Z,11
2017-07-12T09:52:09.096Z,16
2017-07-12T09:53:11.231Z,16
2017-07-12T09:54:13.373Z,16
2017-07-12T09:55:15.508Z,16
2017-07-12T09:56:17.316Z,22
2017-07-12T09:57:19.454Z,22
2017-07-12T09:58:21.258Z,16
2017-07-12T09:59:23.395Z,11
2017-07-12T10:00:24.848Z,11
2017-07-12T10:01:26.979Z,11
2017-07-12T10:02:28.780Z,11
2017-07-12T10:03:30.921Z,11
2017-07-12T10:04:33.063Z,16
2017-07-12T10:05:34.868Z,16
2017-07-12T10:06:36.673Z,16
2017-07-12T10:07:38.481Z,16
2017-07-12T10:08:39.952Z,16
2017-07-12T10:09:41.072Z,16
2017-07-12T10:10:42.522Z,16
2017-07-12T10:11:44.322Z,16
2017-07-12T10:12:46.464Z,16
2017-07-12T10:13:48.268Z,22
2017-07-12T10:14:50.407Z,22
2017-07-12T10:15:52.207Z,22
2017-07-12T10:16:54.020Z,16
2017-07-12T10:17:56.163Z,16
2017-07-12T10:18:57.960Z,16
2017-07-12T10:19:59.765Z,16
2017-07-12T10:21:01.570Z,28
2017-07-12T10:22:03.018Z,33
2017-07-12T10:23:04.799Z,28
2017-07-12T10:24:06.585Z,28
2017-07-12T10:25:07.715Z,33
2017-07-12T10:26:09.496Z,28
2017-07-12T10:27:10.940Z,28
2017-07-12T10:28:12.742Z,28
2017-07-12T10:29:14.211Z,28
2017-07-12T10:30:15.994Z,28
2017-07-12T10:31:17.442Z,28
2017-07-12T10:32:19.575Z,28
2017-07-12T10:33:21.047Z,28
2017-07-12T10:34:23.183Z,22
2017-07-12T10:35:24.651Z,22
2017-07-12T10:36:26.433Z,28
2017-07-12T10:37:28.571Z,22
2017-07-12T10:38:30.356Z,28
2017-07-12T10:39:32.493Z,22
2017-07-12T10:40:34.632Z,33
2017-07-12T10:41:36.076Z,28
2017-07-12T10:42:37.544Z,22
2017-07-12T10:43:39.679Z,22
2017-07-12T10:44:41.147Z,28
2017-07-12T10:45:42.614Z,33
2017-07-12T10:46:44.767Z,28
2017-07-12T10:47:46.625Z,33
2017-07-12T10:48:48.404Z,33
2017-07-12T10:49:50.207Z,28
2017-07-12T10:50:52.347Z,28
2017-07-12T10:51:54.490Z,28
2017-07-12T10:52:56.291Z,16
2017-07-12T10:53:58.433Z,16
2017-07-12T10:55:00.216Z,28
2017-07-12T10:56:01.686Z,28
2017-07-12T10:57:03.154Z,28
2017-07-12T10:58:05.305Z,28
2017-07-12T10:59:07.438Z,33
2017-07-12T11:00:09.224Z,28
2017-07-12T11:01:11.357Z,28
2017-07-12T11:02:13.495Z,33
2017-07-12T11:03:14.964Z,33
2017-07-12T11:04:16.766Z,28
2017-07-12T11:05:18.905Z,33
2017-07-12T11:06:20.705Z,33
2017-07-12T11:07:22.152Z,28
2017-07-12T11:08:24.294Z,33
2017-07-12T11:09:26.098Z,28
2017-07-12T11:10:27.214Z,28
2017-07-12T11:11:29.017Z,28
2017-07-12T11:12:30.462Z,28
2017-07-12T11:13:32.598Z,33
2017-07-12T11:14:34.401Z,33
2017-07-12T11:15:36.540Z,33
2017-07-12T11:16:38.681Z,28
2017-07-12T11:17:40.825Z,28
2017-07-12T11:18:42.627Z,28
2017-07-12T11:19:44.432Z,33
2017-07-12T11:20:45.547Z,28
2017-07-12T11:21:47.326Z,28
2017-07-12T11:22:49.130Z,28
2017-07-12T11:23:50.262Z,33
2017-07-12T11:24:52.399Z,33
2017-07-12T11:25:54.202Z,28
2017-07-12T11:26:56.363Z,33
2017-07-12T11:27:58.500Z,33
2017-07-12T11:29:00.280Z,33
2017-07-12T11:30:02.082Z,28
2017-07-12T11:31:03.862Z,28
2017-07-12T11:32:06.004Z,28
2017-07-12T11:33:07.807Z,28
2017-07-12T11:34:09.944Z,28
2017-07-12T11:35:11.394Z,22
2017-07-12T11:36:12.844Z,22
2017-07-12T11:37:14.993Z,22
2017-07-12T11:38:16.827Z,28
2017-07-12T11:39:17.933Z,28
2017-07-12T11:40:19.384Z,22
2017-07-12T11:41:21.525Z,28
2017-07-12T11:42:23.327Z,22
2017-07-12T11:43:25.467Z,28
2017-07-12T11:44:27.270Z,28
2017-07-12T11:45:29.406Z,28
2017-07-12T11:46:31.544Z,28
2017-07-12T11:47:33.012Z,28
2017-07-12T11:48:34.817Z,28
2017-07-12T11:49:36.618Z,28
2017-07-12T11:50:38.759Z,28
2017-07-12T11:51:40.225Z,33
2017-07-12T11:52:42.363Z,33
2017-07-12T11:53:43.848Z,33
2017-07-12T11:54:45.650Z,33
2017-07-12T11:55:47.117Z,33
2017-07-12T11:56:49.256Z,22
2017-07-12T11:57:50.720Z,22
2017-07-12T11:58:51.837Z,22
2017-07-12T11:59:53.980Z,22
2017-07-12T12:00:55.448Z,22
2017-07-12T12:01:57.585Z,28
2017-07-12T12:02:59.719Z,28
2017-07-12T12:04:01.525Z,28
2017-07-12T12:05:03.324Z,28
2017-07-12T12:06:05.131Z,28
2017-07-12T12:07:06.576Z,22
2017-07-12T12:08:08.383Z,28
2017-07-12T12:09:10.162Z,28
2017-07-12T12:10:11.611Z,28
2017-07-12T12:11:13.058Z,22
2017-07-12T12:12:14.509Z,22
2017-07-12T12:13:15.954Z,22
2017-07-12T12:14:18.091Z,22
2017-07-12T12:15:19.892Z,22
2017-07-12T12:16:22.033Z,22
2017-07-12T12:17:23.151Z,22
2017-07-12T12:18:24.597Z,22
2017-07-12T12:19:26.740Z,22
2017-07-12T12:20:28.880Z,22
2017-07-12T12:21:30.328Z,22
2017-07-12T12:22:31.435Z,22
2017-07-12T12:23:33.570Z,28
2017-07-12T12:24:35.352Z,28
2017-07-12T12:25:37.154Z,28
2017-07-12T12:26:38.937Z,28
2017-07-12T12:27:41.078Z,28
2017-07-12T12:28:42.526Z,28
2017-07-12T12:29:44.765Z,28
2017-07-12T12:30:46.902Z,28
2017-07-12T12:31:49.038Z,28
2017-07-12T12:32:50.846Z,28
2017-07-12T12:33:52.311Z,28
2017-07-12T12:34:54.114Z,28
2017-07-12T12:35:55.922Z,28
2017-07-12T12:36:58.060Z,33
2017-07-12T12:38:00.194Z,33
2017-07-12T12:39:01.996Z,33
2017-07-12T12:40:03.800Z,33
2017-07-12T12:41:05.939Z,33
2017-07-12T12:42:08.074Z,28
2017-07-12T12:43:09.543Z,28
2017-07-12T12:44:11.349Z,28
2017-07-12T12:45:13.136Z,28
2017-07-12T12:46:15.304Z,28
2017-07-12T12:47:17.099Z,28
2017-07-12T12:48:18.904Z,28
2017-07-12T12:49:21.043Z,33
2017-07-12T12:50:22.894Z,33
2017-07-12T12:51:25.033Z,28
2017-07-12T12:52:27.172Z,28
2017-07-12T12:53:28.622Z,33
2017-07-12T12:54:30.425Z,33
2017-07-12T12:55:32.235Z,33
2017-07-12T12:56:34.040Z,33
2017-07-12T12:57:36.180Z,33
2017-07-12T12:58:37.981Z,33
2017-07-12T12:59:40.122Z,33
2017-07-12T13:00:41.924Z,33
2017-07-12T13:01:43.397Z,33
2017-07-12T13:02:45.532Z,33
2017-07-12T13:03:47.311Z,33
2017-07-12T13:04:49.446Z,33
2017-07-12T13:05:50.920Z,33
2017-07-12T13:06:52.369Z,28
2017-07-12T13:07:54.176Z,28
2017-07-12T13:08:55.975Z,28
2017-07-12T13:09:57.781Z,28
2017-07-12T13:10:59.585Z,28
2017-07-12T13:12:01.051Z,22
2017-07-12T13:13:02.519Z,28
2017-07-12T13:14:04.297Z,28
2017-07-12T13:15:06.099Z,28
2017-07-12T13:16:07.880Z,28
2017-07-12T13:17:10.024Z,33
2017-07-12T13:18:11.826Z,28
2017-07-12T13:19:13.276Z,28
2017-07-12T13:20:15.412Z,28
2017-07-12T13:21:16.880Z,33
2017-07-12T13:22:17.991Z,28
2017-07-12T13:23:20.131Z,28
2017-07-12T13:24:21.937Z,28
2017-07-12T13:25:24.073Z,28
2017-07-12T13:26:25.875Z,28
2017-07-12T13:27:28.012Z,22
2017-07-12T13:28:29.483Z,28
2017-07-12T13:29:31.295Z,28
2017-07-12T13:30:32.741Z,33
2017-07-12T13:31:34.546Z,33
2017-07-12T13:32:36.353Z,33
2017-07-12T13:33:38.491Z,28
2017-07-12T13:34:39.937Z,28
2017-07-12T13:35:41.078Z,28
2017-07-12T13:36:42.887Z,28
2017-07-12T13:37:44.687Z,22
2017-07-12T13:38:46.826Z,28
2017-07-12T13:39:48.632Z,28
2017-07-12T13:40:49.403Z,33
2017-07-12T13:41:51.208Z,28
2017-07-12T13:42:52.676Z,28
2017-07-12T13:43:54.813Z,28
2017-07-12T13:44:56.616Z,22
2017-07-12T13:45:58.089Z,16
2017-07-12T13:46:59.894Z,16
2017-07-12T13:48:01.341Z,16
2017-07-12T13:49:02.807Z,16
2017-07-12T13:50:04.613Z,11
2017-07-12T13:51:05.728Z,11
2017-07-12T13:52:07.863Z,16
2017-07-12T13:53:09.999Z,22
2017-07-12T13:54:11.444Z,22
2017-07-12T13:55:12.896Z,28
2017-07-12T13:56:14.347Z,33
2017-07-12T13:57:16.132Z,33
2017-07-12T13:58:17.917Z,28
2017-07-12T13:59:19.722Z,28
2017-07-12T14:00:20.854Z,28
2017-07-12T14:01:22.323Z,33
2017-07-12T14:02:24.464Z,39
2017-07-12T14:03:26.268Z,39
2017-07-12T14:04:28.074Z,39
2017-07-12T14:05:29.551Z,28
2017-07-12T14:06:31.356Z,28
2017-07-12T14:07:33.497Z,33
2017-07-12T14:08:34.942Z,33
2017-07-12T14:09:36.721Z,28
2017-07-12T14:10:38.522Z,22
2017-07-12T14:11:39.628Z,16
2017-07-12T14:12:41.076Z,11
2017-07-12T14:13:42.186Z,5
2017-07-12T14:14:43.990Z,5
2017-07-12T14:15:45.793Z,5
2017-07-12T14:16:46.907Z,0
2017-07-12T14:17:48.349Z,0
2017-07-12T14:18:50.153Z,0
2017-07-12T14:19:52.294Z,0
2017-07-12T14:20:53.765Z,0
2017-07-12T14:21:55.233Z,0
2017-07-12T14:22:57.374Z,0
2017-07-12T14:23:59.514Z,0
2017-07-12T14:25:00.965Z,0
2017-07-12T14:26:03.102Z,0
2017-07-12T14:27:04.905Z,0
2017-07-12T14:28:06.705Z,0
2017-07-12T14:29:08.508Z,0
2017-07-12T14:30:09.624Z,0
2017-07-12T14:31:11.757Z,0
2017-07-12T14:32:13.228Z,5
2017-07-12T14:33:15.365Z,5
2017-07-12T14:34:17.504Z,11
2017-07-12T14:35:19.284Z,11
2017-07-12T14:36:21.090Z,11
2017-07-12T14:37:22.537Z,16
2017-07-12T14:38:24.777Z,16
2017-07-12T14:39:26.936Z,16
2017-07-12T14:40:29.076Z,22
2017-07-12T14:41:30.878Z,16
2017-07-12T14:42:32.347Z,16
2017-07-12T14:43:34.151Z,22
2017-07-12T14:44:36.289Z,22
2017-07-12T14:45:38.429Z,22
2017-07-12T14:46:40.569Z,22
2017-07-12T14:47:41.682Z,22
2017-07-12T14:48:43.129Z,22
2017-07-12T14:49:44.935Z,16
2017-07-12T14:50:46.719Z,16
2017-07-12T14:51:48.523Z,16
2017-07-12T14:52:50.662Z,16
2017-07-12T14:53:52.468Z,16
2017-07-12T14:54:54.269Z,16
2017-07-12T14:55:56.078Z,16
2017-07-12T14:56:57.883Z,16
2017-07-12T14:57:59.687Z,16
2017-07-12T14:59:01.485Z,16
2017-07-12T15:00:03.624Z,16
2017-07-12T15:01:05.762Z,16
2017-07-12T15:02:07.579Z,16
2017-07-12T15:03:08.761Z,16
2017-07-12T15:04:10.895Z,22
2017-07-12T15:05:12.763Z,22
2017-07-12T15:06:14.563Z,16
2017-07-12T15:07:16.027Z,22
2017-07-12T15:08:18.167Z,16
2017-07-12T15:09:20.317Z,11
2017-07-12T15:10:22.457Z,22